Terminal Aerodrome Forecast
Issued by NWS Mt. Holly, NJ

Current Version | Previous Version | Text Only | Print | Product List | Glossary On
Versions: 1 2 3 4 5 6 7 8 9 10 11 12 13 14 15 16 17 18 19 20 21 22 23 24 25
243
FTUS41 KPHI 231754 AAB
TAFPHL
TAF AMD
KPHL 231754Z 2318/2424 23006KT P6SM FEW070
     FM240300 20006KT P6SM BKN070
     FM240800 20004KT 4SM BR SCT060
     FM240900 VRB03KT 2SM BR SCT004 OVC010
      TEMPO 2410/2413 1/2SM FG OVC004
     FM241300 VRB03KT 1 1/2SM BR OVC006
     FM241400 20005KT 3SM BR OVC009
     FM241500 20010KT P6SM SCT010 BKN120=

USA.gov is the U.S. government's official web portal to all federal, state and local government web resources and services.